OUA weather

Ouagadougou Airport
Ouagadougou, Kadiogo, Burkina Faso

Public forecast

Using degrees Celsius for public forecast. Weather courtesy of forecast.io.

Current aviation weather report (METAR) for Ouagadougou Airport

Retrieved 2020/03/29 12:00 UTC (48 minutes ago):

DFFD 291200Z 01008KT 340V070 CAVOK 40/04 Q1010 NOSIG

Aviation forecast (TAF) for Ouagadougou Airport

Retrieved 2020/03/29 12:15 UTC (33 minutes ago):

TAF TAF DFFD 291100Z 2912/3018 02008KT 8000 NSC